Rumney, New Hampshire
Current Conditions -  °F | °C
As of 8:35 PM on Tuesday 27 Jan 2015 (Local Time) from K1P1 Reporting Station
Overcast Overcast  
Wind Chill: -21°   Ceiling: 9000
Heat Index: -12°   Visibility: 10mi
Dew Point: -15°   Wind: 15mph
Humidity: 80%   Direction: 290°WNW
Pressure: 29.69"   Gusts: 23mph
Location:  43.81°N, 71.81°W
Report Text: K1P1 280135Z AUTO 29013G20KT 10SM OVC090 M12/M14 A2969 RMK AO2 T11171145
Loading
Personal Weather Stations






























Interactive Weather Map New forecast layout! Learn more

10-Day Weather Forecast

Advertisements
Track Severe Weather on mobile